Tiempo atmosférico en la estación meteorológica de Retiendas, Guadalajara (910 m.)



Fecha
DESCASC
Temp. máxima en grados centígrados (hora)
DESCASC
Temp. mínima en grados centígrados (hora)
DESCASC
Temp. media en grados centígrados
DESCASC
Racha de viento máxima en m/sg (hora)
DESCASC
Velocidad máxima media en intervalos de 10 minutos(hora)
DESCASC
Precipitaciones diarias en mm
DESCASC
Precipitaciones de 00:00 a 06:00 en mm
DESCASC
Precipitaciones de 06:00 a 12:00 en mm
DESCASC
Precipitaciones de 12:00 a 18:00 en mm
DESCASC
Precipitaciones de 18:00 a 24:00 en mm
DESCASC

Gráficas

Temp. máximas Temp. mínimas Temp. medias Precipitaciones Rachas de viento máximas Velocidades máximas media en intervalos de 10 minutos

Datos horarios

Fecha y hora oficial Temperatura (ºC) Velocidad del viento (km/h) Dirección del viento Racha (km/h) Dirección de racha Precipitación (mm) Presión (hPa) Tendencia (hPa) Humedad (%)
2021-03-01 23:00:00 6.3 0 Calma 3 Sur 0 -- -- 98
2021-03-01 22:00:00 6.3 0 Calma 5 Nordeste 0.2 -- -- 97
2021-03-01 21:00:00 6.3 0 Calma 3 Sur 0.4 -- -- 97
2021-03-01 20:00:00 6.3 0 Calma 6 Norte 0.2 -- -- 96
2021-03-01 19:00:00 6.3 0 Calma 8 Nordeste 0 -- -- 95
2021-03-01 18:00:00 6.8 0 Calma 6 Nordeste 0 -- -- 89
2021-03-01 17:00:00 6.8 4 Nordeste 8 Nordeste 0 -- -- 85
2021-03-01 16:00:00 6.7 4 Nordeste 6 Nordeste 0 -- -- 83
2021-03-01 15:00:00 6.7 0 Calma 2 Este 0.2 -- -- 86
2021-03-01 14:00:00 6.7 0 Calma 3 Oeste 0 -- -- 89
2021-03-01 13:00:00 6.9 2 Sudoeste 6 Sudoeste 0 -- -- 78
2021-03-01 12:00:00 6.8 2 Sudoeste 4 Sudoeste 0 -- -- 76
2021-03-01 11:00:00 6.3 0 Calma 2 Sudoeste 0 -- -- 83
2021-03-01 10:00:00 6 0 Calma 5 Nordeste 0 -- -- 85
2021-03-01 09:00:00 5.8 0 Calma 5 Nordeste 0 -- -- 85
2021-03-01 08:00:00 5.4 0 Calma 2 Oeste 0 -- -- 87
2021-03-01 07:00:00 5.3 0 Calma 2 Sudeste 0 -- -- 86
2021-03-01 06:00:00 5.5 0 Calma 2 Sudoeste 0 -- -- 85
2021-03-01 05:00:00 5.7 0 Calma 2 Oeste 0 -- -- 83
2021-03-01 04:00:00 5.8 2 Sur 4 Sur 0 -- -- 81
2021-03-01 03:00:00 5.9 0 Calma 5 Sur 0 -- -- 79
2021-03-01 02:00:00 6.1 0 Calma 4 Sur 0 -- -- 79
2021-03-01 01:00:00 6.8 2 Sur 6 Sur 0 -- -- 78
2021-03-01 00:00:00 7 0 Calma 2 Sur 0 -- -- 81
2021-02-28 23:00:00 7.7 0 Calma 6 Sudeste 0 -- -- 75
2021-02-28 22:00:00 8.2 3 Sur 16 Sudeste 0 -- -- 70
2021-02-28 21:00:00 8.9 4 Sur 15 Sudeste 0 -- -- 67
2021-02-28 20:00:00 9.5 6 Sudeste 18 Sudeste 0 -- -- 66
2021-02-28 19:00:00 10 6 Sudeste 15 Sur 0 -- -- 65
2021-02-28 18:00:00 10.1 2 Sur 9 Sudeste 0 -- -- 68
2021-02-28 17:00:00 10.4 0 Calma 12 Sur 0 -- -- 65
2021-02-28 16:00:00 10.2 3 Sur 16 Sur 0 -- -- 65
2021-02-28 15:00:00 9.6 4 Sudoeste 22 Sudeste 0 -- -- 66
2021-02-28 14:00:00 9 6 Sudeste 22 Sudeste 0 -- -- 66
2021-02-28 13:00:00 8.6 10 Sudeste 28 Sudeste 0 -- -- 65
2021-02-28 12:00:00 8.6 4 Sudeste 17 Sudeste 0 -- -- 69
2021-02-28 11:00:00 6.6 6 Sudeste 12 Sudeste 0 -- -- 75
2021-02-28 10:00:00 3 6 Este 10 Nordeste 0 -- -- 84
2021-02-28 09:00:00 0.2 0 Calma 8 Nordeste 0 -- -- 92
2021-02-28 08:00:00 0 3 Nordeste 8 Nordeste 0 -- -- 91
2021-02-28 07:00:00 0.3 4 Norte 9 Nordeste 0 -- -- 89
2021-02-28 06:00:00 0.9 5 Nordeste 9 Norte 0 -- -- 88
2021-02-28 05:00:00 1.4 3 Nordeste 8 Nordeste 0 -- -- 87
2021-02-28 04:00:00 2.1 3 Nordeste 8 Nordeste 0 -- -- 86
2021-02-28 03:00:00 2.7 3 Nordeste 12 Nordeste 0 -- -- 82
2021-02-28 02:00:00 3 5 Nordeste 11 Nordeste 0 -- -- 83
2021-02-28 01:00:00 4.1 4 Nordeste 10 Norte 0 -- -- 80
2021-02-28 00:00:00 4.5 3 Nordeste 10 Nordeste 0 -- -- 78
2021-02-27 23:00:00 5.7 3 Nordeste 12 Nordeste 0 -- -- 73
2021-02-27 22:00:00 6.6 0 Calma 9 Nordeste 0 -- -- 69
2021-02-27 21:00:00 8.1 0 Calma 5 Nordeste 0 -- -- 64
2021-02-27 20:00:00 10.1 0 Calma 4 Este 0 -- -- 55
2021-02-27 19:00:00 12.5 2 Sudeste 6 Noroeste 0 -- -- 46
2021-02-27 18:00:00 15.7 0 Calma 9 Sudoeste 0 -- -- 40
2021-02-27 17:00:00 18.9 3 Sudoeste 15 Oeste 0 -- -- 35
2021-02-27 16:00:00 20 6 Sudoeste 15 Sur 0 -- -- 23
2021-02-27 15:00:00 19.3 5 Sudoeste 17 Sur 0 -- -- 25
2021-02-27 14:00:00 18.7 5 Sudoeste 13 Sudoeste 0 -- -- 23
2021-02-27 13:00:00 17 4 Nordeste 12 Este 0 -- -- 25
2021-02-27 12:00:00 14.6 0 Calma 5 Nordeste 0 -- -- 31
2021-02-27 11:00:00 10.4 3 Nordeste 14 Nordeste 0 -- -- 55
2021-02-27 10:00:00 6.3 8 Nordeste 15 Norte 0 -- -- 68
2021-02-27 09:00:00 2.7 3 Nordeste 8 Este 0 -- -- 84
2021-02-27 08:00:00 2.1 0 Calma 10 Nordeste 0 -- -- 88
2021-02-27 07:00:00 2.7 2 Norte 11 Nordeste 0 -- -- 85
2021-02-27 06:00:00 2.8 3 Nordeste 11 Nordeste 0 -- -- 87
2021-02-27 05:00:00 2.7 0 Calma 7 Nordeste 0 -- -- 90
2021-02-27 04:00:00 3.1 2 Nordeste 8 Noroeste 0 -- -- 89
2021-02-27 03:00:00 3.6 2 Norte 10 Nordeste 0 -- -- 87
2021-02-27 02:00:00 4.5 3 Norte 8 Nordeste 0 -- -- 85
2021-02-27 01:00:00 5.2 3 Nordeste 9 Nordeste 0 -- -- 83
2021-02-27 00:00:00 5.7 5 Nordeste 9 Nordeste 0 -- -- 84
2021-02-26 23:00:00 6.5 3 Nordeste 9 Norte 0 -- -- 81
2021-02-26 22:00:00 7.7 3 Norte 9 Nordeste 0 -- -- 79
2021-02-26 21:00:00 8.6 2 Norte 8 Nordeste 0 -- -- 76
2021-02-26 20:00:00 9.6 0 Calma 5 Nordeste 0 -- -- 72
2021-02-26 19:00:00 11.4 0 Calma 5 Sudoeste 0 -- -- 65
2021-02-26 18:00:00 13.1 3 Sudoeste 8 Sudoeste 0 -- -- 62
2021-02-26 17:00:00 16.1 5 Sudoeste 15 Sudeste 0 -- -- 48
2021-02-26 16:00:00 15.8 3 Sudoeste 12 Sudeste 0 -- -- 46
2021-02-26 15:00:00 14.8 3 Sur 17 Sudeste 0 -- -- 48
2021-02-26 14:00:00 14.7 4 Sur 17 Oeste 0 -- -- 46
2021-02-26 13:00:00 13.3 6 Sur 16 Sur 0 -- -- 47
2021-02-26 12:00:00 11.8 2 Sudoeste 5 Noroeste 0 -- -- 57
2021-02-26 11:00:00 8.3 0 Calma 7 Nordeste 0 -- -- 78
2021-02-26 10:00:00 5.1 3 Nordeste 8 Nordeste 0 -- -- 89
2021-02-26 09:00:00 3.4 5 Nordeste 8 Nordeste 0 -- -- 92
2021-02-26 08:00:00 3 3 Norte 9 Nordeste 0 -- -- 94
2021-02-26 07:00:00 3.3 3 Norte 8 Norte 0 -- -- 94
2021-02-26 06:00:00 3.6 2 Norte 8 Nordeste 0 -- -- 93
2021-02-26 05:00:00 4.1 3 Norte 9 Nordeste 0 -- -- 92
2021-02-26 04:00:00 4.6 2 Norte 7 Nordeste 0 -- -- 91
2021-02-26 03:00:00 5.1 2 Norte 6 Nordeste 0 -- -- 91
2021-02-26 02:00:00 5.3 0 Calma 5 Norte 0 -- -- 89
2021-02-26 01:00:00 5.9 0 Calma 6 Nordeste 0 -- -- 88
2021-02-26 00:00:00 6.2 3 Norte 9 Este 0 -- -- 87
2021-02-25 23:00:00 6.9 2 Norte 7 Norte 0 -- -- 83
2021-02-25 22:00:00 7.8 5 Norte 11 Nordeste 0 -- -- 80
2021-02-25 21:00:00 7.8 3 Nordeste 10 Nordeste 0 -- -- 80
2021-02-25 20:00:00 8.4 3 Nordeste 9 Nordeste 0 -- -- 78
2021-02-25 19:00:00 10.2 0 Calma 3 Sudoeste 0 -- -- 73
2021-02-25 18:00:00 11.4 0 Calma 7 Sur 0 -- -- 68
2021-02-25 17:00:00 12.3 3 Sur 9 Sur 0 -- -- 60
2021-02-25 16:00:00 12.3 4 Sudoeste 10 Sur 0 -- -- 58
2021-02-25 15:00:00 11.8 4 Sur 10 Sudeste 0 -- -- 59
2021-02-25 14:00:00 10.9 5 Sur 10 Sur 0 -- -- 62
2021-02-25 13:00:00 9.1 0 Calma 7 Sur 0 -- -- 73
2021-02-25 12:00:00 7.6 5 Nordeste 8 Nordeste 0 -- -- 79
2021-02-25 11:00:00 6.8 0 Calma 3 Nordeste 0 -- -- 83
2021-02-25 10:00:00 5.5 0 Calma 7 Nordeste 0 -- -- 92
2021-02-25 09:00:00 4.5 3 Nordeste 5 Nordeste 0 -- -- 95
2021-02-25 08:00:00 4.4 3 Nordeste 5 Nordeste 0 -- -- 94
2021-02-25 07:00:00 4 0 Calma 7 Nordeste 0 -- -- 95
2021-02-25 06:00:00 3.5 3 Nordeste 9 Nordeste 0 -- -- 96
2021-02-25 05:00:00 3 4 Nordeste 8 Nordeste 0 -- -- 96
2021-02-25 04:00:00 3.4 4 Nordeste 9 Nordeste 0 -- -- 96
2021-02-25 03:00:00 4 3 Nordeste 11 Norte 0 -- -- 96
2021-02-25 02:00:00 4.9 0 Calma 8 Nordeste 0 -- -- 92
2021-02-25 01:00:00 5.3 0 Calma 9 Nordeste 0 -- -- 93
2021-02-25 00:00:00 5.1 3 Nordeste 6 Nordeste 0 -- -- 95
2021-02-24 23:00:00 4.9 0 Calma 4 Nordeste 0 -- -- 94
2021-02-24 22:00:00 5.9 0 Calma 4 Este 0 -- -- 91
2021-02-24 21:00:00 7 0 Calma 2 Sudeste 0 -- -- 88
2021-02-24 20:00:00 8.7 0 Calma 6 Sur 0 -- -- 84
2021-02-24 19:00:00 11.1 0 Calma 13 Sudeste 0 -- -- 75
2021-02-24 18:00:00 11.9 8 Sudeste 17 Sudeste 0 -- -- 71
2021-02-24 17:00:00 12.3 7 Sur 21 Sudeste 0 -- -- 68
2021-02-24 16:00:00 12.2 11 Sudeste 25 Sudeste 0 -- -- 69
2021-02-24 15:00:00 12.6 12 Sudeste 27 Sudeste 0 -- -- 65
2021-02-24 14:00:00 11.2 12 Sudeste 29 Sur 0 -- -- 69
2021-02-24 13:00:00 11.4 13 Sudeste 26 Sudeste 0 -- -- 67
2021-02-24 12:00:00 10.7 8 Sudeste 24 Sudeste 0 -- -- 71
2021-02-24 11:00:00 8.2 9 Sudeste 15 Sudeste 0 -- -- 83
2021-02-24 10:00:00 3.6 3 Nordeste 6 Nordeste 0 -- -- 99
2021-02-24 09:00:00 1.3 0 Calma 4 Nordeste 0 -- -- 100
2021-02-24 08:00:00 1 0 Calma 5 Nordeste 0 -- -- 100
2021-02-24 07:00:00 1 0 Calma 3 Este 0 -- -- 99
2021-02-24 06:00:00 1.1 0 Calma 2 Nordeste 0 -- -- 98
2021-02-24 05:00:00 1.3 0 Calma 0 Calma 0 -- -- 97
2021-02-24 04:00:00 1.7 0 Calma 0 Calma 0 -- -- 95
2021-02-24 03:00:00 2.4 0 Calma 5 Nordeste 0 -- -- 95
2021-02-24 02:00:00 2.3 2 Nordeste 5 Nordeste 0 -- -- 95
2021-02-24 01:00:00 2.7 2 Nordeste 7 Nordeste 0 -- -- 93
2021-02-24 00:00:00 2.7 4 Nordeste 9 Nordeste 0 -- -- 93
2021-02-23 23:00:00 2.8 0 Calma 5 Nordeste 0 -- -- 93
2021-02-23 22:00:00 3.7 0 Calma 6 Nordeste 0 -- -- 90
2021-02-23 21:00:00 4.7 2 Nordeste 5 Nordeste 0 -- -- 89
2021-02-23 20:00:00 6 0 Calma 3 Sudoeste 0 -- -- 82
2021-02-23 19:00:00 7.8 0 Calma 12 Sudeste 0 -- -- 76
2021-02-23 18:00:00 9.9 2 Sur 11 Sur 0 -- -- 69
2021-02-23 17:00:00 10.7 9 Sudeste 22 Sur 0 -- -- 61
2021-02-23 16:00:00 11.5 9 Sur 22 Sudeste 0 -- -- 57
2021-02-23 15:00:00 11 8 Sur 27 Sudeste 0 -- -- 60
2021-02-23 14:00:00 11.5 9 Sur 20 Sudeste 0 -- -- 56
2021-02-23 13:00:00 10.3 9 Sudeste 22 Sudeste 0 -- -- 63
2021-02-23 12:00:00 8.9 10 Sur 19 Sudeste 0 -- -- 66
2021-02-23 11:00:00 5.7 2 Nordeste 6 Este 0 -- -- 83
2021-02-23 10:00:00 2.1 3 Nordeste 12 Nordeste 0 -- -- 88
2021-02-23 09:00:00 0.5 8 Nordeste 13 Nordeste 0 -- -- 95
2021-02-23 08:00:00 -0.2 0 Calma 6 Nordeste 0 -- -- 94
2021-02-23 07:00:00 0.6 2 Norte 8 Nordeste 0 -- -- 95
2021-02-23 06:00:00 1.2 3 Norte 11 Nordeste 0 -- -- 93
2021-02-23 05:00:00 1.6 4 Nordeste 9 Nordeste 0 -- -- 91
2021-02-23 04:00:00 1.7 3 Norte 10 Nordeste 0 -- -- 91
2021-02-23 03:00:00 2.3 2 Norte 5 Norte 0 -- -- 93
2021-02-23 02:00:00 2.9 0 Calma 2 Sur 0 -- -- 89
2021-02-23 01:00:00 4.3 0 Calma 4 Noroeste 0 -- -- 86
2021-02-23 00:00:00 4.9 0 Calma 3 Sur 0 -- -- 85
2021-02-22 23:00:00 5.5 0 Calma 5 Sur 0 -- -- 79
2021-02-22 22:00:00 6.4 0 Calma 14 Nordeste 0 -- -- 72
2021-02-22 21:00:00 6.7 6 Nordeste 15 Nordeste 0 -- -- 67
2021-02-22 20:00:00 6.3 6 Nordeste 14 Este 0 -- -- 70
2021-02-22 19:00:00 6.4 5 Nordeste 26 Nordeste 0 -- -- 71
2021-02-22 18:00:00 6.9 13 Nordeste 26 Nordeste 0 -- -- 67
2021-02-22 17:00:00 7.6 10 Nordeste 28 Nordeste 0 -- -- 62
2021-02-22 16:00:00 8.2 13 Nordeste 33 Nordeste 0 -- -- 60
2021-02-22 15:00:00 7.6 14 Nordeste 35 Nordeste 0 -- -- 63
2021-02-22 14:00:00 7.3 18 Nordeste 31 Nordeste 0 -- -- 62
2021-02-22 13:00:00 6.5 17 Nordeste 41 Este 0 -- -- 65
2021-02-22 12:00:00 5.5 13 Nordeste 30 Nordeste 0 -- -- 72
2021-02-22 11:00:00 5 12 Nordeste 27 Nordeste 0 -- -- 75
2021-02-22 10:00:00 4.8 10 Nordeste 21 Nordeste 0 -- -- 74
2021-02-22 09:00:00 4.3 4 Nordeste 15 Nordeste 0 -- -- 77
2021-02-22 08:00:00 4.1 6 Nordeste 24 Nordeste 0 -- -- 77
2021-02-22 07:00:00 4 4 Nordeste 10 Nordeste 0 -- -- 78
2021-02-22 06:00:00 4.3 4 Nordeste 17 Este 0 -- -- 78
2021-02-22 05:00:00 4.3 4 Nordeste 19 Nordeste 0 -- -- 78
2021-02-22 04:00:00 4 6 Nordeste 22 Nordeste 0 -- -- 83
2021-02-22 03:00:00 4.2 10 Nordeste 23 Este 0.4 -- -- 85
2021-02-22 02:00:00 4.1 10 Nordeste 19 Este 0.4 -- -- 90
2021-02-22 01:00:00 4.4 12 Nordeste 29 Nordeste 0 -- -- 88
2021-02-22 00:00:00 5.4 12 Nordeste 24 Nordeste 0.8 -- -- 88
2021-02-21 23:00:00 6 11 Sudeste 18 Sudeste 0.6 -- -- 96
2021-02-21 22:00:00 7.1 0 Calma 3 Nordeste 2 -- -- 98
2021-02-21 21:00:00 7.4 0 Calma 2 Sur 2 -- -- 97
2021-02-21 20:00:00 7.6 0 Calma 2 Sudeste 0.8 -- -- 96
2021-02-21 19:00:00 7.8 0 Calma 2 Sur 0.6 -- -- 94
2021-02-21 18:00:00 8.8 0 Calma 4 Sudeste 0 -- -- 89
2021-02-21 17:00:00 9 0 Calma 9 Sur 0 -- -- 83
2021-02-21 16:00:00 9.2 3 Sur 12 Sudeste 0 -- -- 77
2021-02-21 15:00:00 9.1 5 Sudeste 17 Sudeste 0 -- -- 76
2021-02-21 14:00:00 9.2 8 Sudeste 21 Sudeste 0 -- -- 74
2021-02-21 13:00:00 9.5 9 Sudeste 23 Sudeste 0 -- -- 69
2021-02-21 12:00:00 9 6 Sudeste 14 Sudeste 0 -- -- 71
2021-02-21 11:00:00 5.8 6 Nordeste 8 Nordeste 0 -- -- 82
2021-02-21 10:00:00 4.8 0 Calma 7 Nordeste 0 -- -- 89
2021-02-21 09:00:00 4.2 0 Calma 6 Nordeste 0 -- -- 91
2021-02-21 08:00:00 4.1 5 Nordeste 10 Nordeste 0 -- -- 91
2021-02-21 07:00:00 3.9 0 Calma 9 Nordeste 0 -- -- 91
2021-02-21 06:00:00 4.3 4 Nordeste 9 Nordeste 0 -- -- 90
2021-02-21 05:00:00 4.1 3 Nordeste 8 Este 0 -- -- 90
2021-02-21 04:00:00 4.3 3 Nordeste 9 Nordeste 0 -- -- 89
2021-02-21 03:00:00 4.7 5 Nordeste 10 Nordeste 0 -- -- 88
2021-02-21 02:00:00 5 0 Calma 13 Sudeste 0 -- -- 87
2021-02-21 01:00:00 5.6 4 Nordeste 12 Nordeste 0 -- -- 82
2021-02-21 00:00:00 5.3 2 Noroeste 12 Nordeste 0 -- -- 78
2021-02-20 23:00:00 5.1 0 Calma 11 Nordeste 0 -- -- 80
2021-02-20 22:00:00 5.7 0 Calma 5 Este 0 -- -- 78
2021-02-20 21:00:00 7.1 0 Calma 7 Este 0 -- -- 73
2021-02-20 20:00:00 8.6 0 Calma 3 Sudeste 0 -- -- 67
2021-02-20 19:00:00 11.2 0 Calma 16 Sudeste 0 -- -- 56
2021-02-20 18:00:00 14 4 Sudoeste 24 Sudeste 0 -- -- 42
2021-02-20 17:00:00 15.1 15 Sur 33 Sudeste 0 -- -- 37
2021-02-20 16:00:00 14.2 6 Sur 39 Sudeste 0 -- -- 40
2021-02-20 15:00:00 14 14 Sudeste 35 Sudeste 0 -- -- 43
2021-02-20 14:00:00 14.5 6 Este 38 Sudeste 0 -- -- 46
2021-02-20 13:00:00 10.5 3 Nordeste 10 Sudeste 0 -- -- 63
2021-02-20 12:00:00 9.7 4 Sudeste 21 Sudeste 0 -- -- 67
2021-02-20 11:00:00 7.7 8 Sudeste 14 Sudeste 0 -- -- 77
2021-02-20 10:00:00 4.9 0 Calma 8 Nordeste 0 -- -- 90
2021-02-20 09:00:00 2.7 3 Nordeste 6 Nordeste 0 -- -- 96
2021-02-20 08:00:00 2 0 Calma 4 Este 0 -- -- 96
2021-02-20 07:00:00 2.2 2 Nordeste 8 Nordeste 0 -- -- 95
2021-02-20 06:00:00 2.3 0 Calma 7 Nordeste 0 -- -- 94
2021-02-20 05:00:00 2.4 0 Calma 6 Nordeste 0 -- -- 94
2021-02-20 04:00:00 2.5 2 Nordeste 8 Norte 0 -- -- 94
2021-02-20 03:00:00 2.4 0 Calma 4 Nordeste 0 -- -- 94
2021-02-20 02:00:00 3 2 Nordeste 5 Este 0 -- -- 93
2021-02-20 01:00:00 3.3 0 Calma 4 Este 0 -- -- 91
2021-02-20 00:00:00 3.8 0 Calma 3 Nordeste 0 -- -- 92
2021-02-19 23:00:00 4.6 0 Calma 2 Sudoeste 0 -- -- 88
2021-02-19 22:00:00 5.5 0 Calma 2 Sudeste 0 -- -- 82
2021-02-19 21:00:00 6.7 0 Calma 4 Este 0 -- -- 79
2021-02-19 20:00:00 7.5 0 Calma 3 Nordeste 0 -- -- 72
2021-02-19 19:00:00 9.2 0 Calma 4 Sudeste 0 -- -- 66
2021-02-19 18:00:00 11.8 2 Sudoeste 23 Sudeste 0 -- -- 56
2021-02-19 17:00:00 14.5 14 Sudeste 31 Sudeste 0 -- -- 43
2021-02-19 16:00:00 14.3 12 Sudeste 31 Sudeste 0 -- -- 44
2021-02-19 15:00:00 14.5 11 Sur 32 Sudeste 0 -- -- 42
2021-02-19 14:00:00 13.7 9 Sur 25 Sudeste 0 -- -- 50
2021-02-19 13:00:00 12.4 12 Sudeste 30 Sudeste 0 -- -- 58
2021-02-19 12:00:00 11.1 6 Sur 19 Sudeste 0 -- -- 63
2021-02-19 11:00:00 6.9 0 Calma 6 Nordeste 0 -- -- 80
2021-02-19 10:00:00 2.8 0 Calma 8 Nordeste 0 -- -- 88
2021-02-19 09:00:00 1.1 5 Nordeste 11 Nordeste 0 -- -- 93
2021-02-19 08:00:00 0.4 0 Calma 6 Este 0 -- -- 95
2021-02-19 07:00:00 1 0 Calma 6 Este 0 -- -- 93
2021-02-19 06:00:00 1.3 3 Nordeste 6 Nordeste 0 -- -- 93
2021-02-19 05:00:00 1.7 2 Norte 8 Nordeste 0 -- -- 91
2021-02-19 04:00:00 1.4 0 Calma 6 Nordeste 0 -- -- 94
2021-02-19 03:00:00 1.6 0 Calma 4 Norte 0 -- -- 94
2021-02-19 02:00:00 1.9 0 Calma 4 Nordeste 0 -- -- 93
2021-02-19 01:00:00 2.4 0 Calma 3 Norte 0 -- -- 91
2021-02-19 00:00:00 3.2 0 Calma 2 Sudoeste 0 -- -- 89
2021-02-18 23:00:00 4.2 0 Calma 3 Noroeste 0 -- -- 85
2021-02-18 22:00:00 5.2 0 Calma 5 Nordeste 0 -- -- 81
2021-02-18 21:00:00 6.4 0 Calma 9 Sur 0 -- -- 73
2021-02-18 20:00:00 8.3 5 Sudoeste 11 Sudoeste 0 -- -- 64
2021-02-18 19:00:00 10.2 5 Sudoeste 18 Sudoeste 0 -- -- 63
2021-02-18 18:00:00 12.2 6 Oeste 27 Oeste 0 -- -- 54
2021-02-18 17:00:00 13.4 12 Oeste 33 Sudeste 0 -- -- 49
2021-02-18 16:00:00 13.6 7 Sur 32 Sudeste 0 -- -- 52
2021-02-18 15:00:00 13.5 9 Sur 34 Sudeste 0 -- -- 59
2021-02-18 14:00:00 13.2 16 Sudeste 35 Sudeste 0 -- -- 55
2021-02-18 13:00:00 10.9 12 Sudeste 24 Sudeste 0 -- -- 71
2021-02-18 12:00:00 8.9 12 Sudeste 22 Sudeste 0 -- -- 79
2021-02-18 11:00:00 4.9 0 Calma 5 Nordeste 0 -- -- 95
2021-02-18 10:00:00 3.1 0 Calma 7 Nordeste 0 -- -- 98
2021-02-18 09:00:00 2.4 2 Nordeste 8 Nordeste 0 -- -- 98
2021-02-18 08:00:00 1.6 0 Calma 7 Nordeste 0 -- -- 97
2021-02-18 07:00:00 2.1 0 Calma 6 Nordeste 0 -- -- 98
2021-02-18 06:00:00 2.2 0 Calma 5 Nordeste 0 -- -- 98
2021-02-18 05:00:00 2.4 0 Calma 6 Nordeste 0 -- -- 98
2021-02-18 04:00:00 2.6 0 Calma 6 Nordeste 0 -- -- 97
2021-02-18 03:00:00 3 0 Calma 4 Nordeste 0 -- -- 97
2021-02-18 02:00:00 3.6 0 Calma 4 Nordeste 0 -- -- 96
2021-02-18 01:00:00 4.1 0 Calma 5 Noroeste 0 -- -- 95
2021-02-18 00:00:00 4.7 2 Nordeste 7 Nordeste 0 -- -- 95
2021-02-17 23:00:00 5.2 3 Nordeste 8 Nordeste 0 -- -- 94
2021-02-17 22:00:00 5.9 0 Calma 6 Nordeste 0 -- -- 93
2021-02-17 21:00:00 6.8 0 Calma 5 Nordeste 0 -- -- 90
2021-02-17 20:00:00 8 0 Calma 2 Sur 0 -- -- 88
2021-02-17 19:00:00 9.9 0 Calma 6 Sur 0 -- -- 81
2021-02-17 18:00:00 12 4 Sur 16 Sudeste 0 -- -- 73
2021-02-17 17:00:00 13.3 8 Sur 20 Sudeste 0 -- -- 67
2021-02-17 16:00:00 13.6 10 Sur 24 Este 0 -- -- 64
2021-02-17 15:00:00 12.9 13 Sudeste 23 Sudeste 0 -- -- 68
2021-02-17 14:00:00 12.1 8 Sur 18 Sur 0 -- -- 70
2021-02-17 13:00:00 11.2 8 Sudeste 27 Sudeste 0 -- -- 77
2021-02-17 12:00:00 9.9 14 Sudeste 22 Sudeste 0 -- -- 78
2021-02-17 11:00:00 7.8 7 Sur 11 Sudeste 0 -- -- 90
2021-02-17 10:00:00 5 4 Nordeste 8 Nordeste 0 -- -- 98
2021-02-17 09:00:00 3.8 3 Nordeste 8 Nordeste 0 -- -- 99
2021-02-17 08:00:00 3.1 0 Calma 2 Sur 0 -- -- 100
2021-02-17 07:00:00 2.9 0 Calma 4 Sur 0 -- -- 98
2021-02-17 06:00:00 4 0 Calma 8 Nordeste 0 -- -- 98
2021-02-17 05:00:00 4 3 Nordeste 6 Nordeste 0 -- -- 98
2021-02-17 04:00:00 3.8 0 Calma 6 Nordeste 0 -- -- 97
2021-02-17 03:00:00 4 0 Calma 8 Nordeste 0 -- -- 97
2021-02-17 02:00:00 4.2 0 Calma 5 Nordeste 0 -- -- 97
2021-02-17 01:00:00 4.7 0 Calma 9 Nordeste 0 -- -- 96
2021-02-17 00:00:00 5.2 2 Norte 8 Nordeste 0 -- -- 95
2021-02-16 23:00:00 5.9 0 Calma 7 Norte 0 -- -- 94
2021-02-16 22:00:00 6.8 0 Calma 9 Nordeste 0 -- -- 92
2021-02-16 21:00:00 7.3 3 Nordeste 7 Nordeste 0 -- -- 92
2021-02-16 20:00:00 8 2 Este 6 Nordeste 0 -- -- 90
2021-02-16 19:00:00 9 0 Calma 11 Sur 0 -- -- 86
2021-02-16 18:00:00 10.6 2 Sudoeste 13 Sur 0 -- -- 78
2021-02-16 17:00:00 11.2 4 Sudeste 15 Sudeste 0 -- -- 73
2021-02-16 16:00:00 11.3 9 Sudeste 24 Sudeste 0 -- -- 71
2021-02-16 15:00:00 11.9 13 Sur 26 Sudeste 0 -- -- 68
2021-02-16 14:00:00 11.1 12 Sudeste 23 Sur 0 -- -- 72
2021-02-16 13:00:00 9.9 12 Sudeste 23 Sudeste 0 -- -- 77
2021-02-16 12:00:00 8.3 12 Sudeste 21 Sudeste 0 -- -- 81
2021-02-16 11:00:00 7.3 9 Sudeste 15 Sudeste 0 -- -- 89
2021-02-16 10:00:00 2.9 3 Nordeste 7 Este 0 -- -- 97
2021-02-16 09:00:00 1.7 0 Calma 9 Nordeste 0 -- -- 99
2021-02-16 08:00:00 1.4 3 Nordeste 9 Nordeste 0 -- -- 99
2021-02-16 07:00:00 1.4 2 Este 6 Nordeste 0 -- -- 99
2021-02-16 06:00:00 1.5 0 Calma 5 Sur 0 -- -- 99
2021-02-16 05:00:00 2.3 0 Calma 6 Nordeste 0 -- -- 98
2021-02-16 04:00:00 2.8 2 Nordeste 6 Nordeste 0 -- -- 98
2021-02-16 03:00:00 3.2 3 Nordeste 6 Nordeste 0 -- -- 97
2021-02-16 02:00:00 3.8 0 Calma 5 Nordeste 0 -- -- 96
2021-02-16 01:00:00 4.3 0 Calma 5 Nordeste 0 -- -- 94
2021-02-16 00:00:00 5.6 2 Este 8 Nordeste 0 -- -- 90
2021-02-15 23:00:00 6 3 Nordeste 9 Nordeste 0 -- -- 89
2021-02-15 22:00:00 6 4 Nordeste 10 Norte 0 -- -- 90
2021-02-15 21:00:00 5.4 0 Calma 4 Este 0 -- -- 95
2021-02-15 20:00:00 6.4 0 Calma 4 Sudeste 0 -- -- 92
2021-02-15 19:00:00 8 0 Calma 6 Sudoeste 0 -- -- 85
2021-02-15 18:00:00 9.9 2 Sudoeste 17 Sudeste 0 -- -- 77
2021-02-15 17:00:00 11.6 7 Sur 22 Sudeste 0 -- -- 69
2021-02-15 16:00:00 12 12 Sur 30 Sudeste 0 -- -- 66
2021-02-15 15:00:00 11.5 9 Sudeste 23 Sur 0 -- -- 69
2021-02-15 14:00:00 9.9 13 Sudeste 25 Sudeste 0 -- -- 72
2021-02-15 13:00:00 9.6 7 Sur 18 Sudeste 0 -- -- 77
2021-02-15 12:00:00 7.5 0 Calma 5 Nordeste 0 -- -- 89
2021-02-15 11:00:00 5.3 0 Calma 5 Nordeste 0 -- -- 95
2021-02-15 10:00:00 4 0 Calma 3 Sur 0 -- -- 98
2021-02-15 09:00:00 3.1 0 Calma 8 Nordeste 0 -- -- 98
2021-02-15 08:00:00 2.4 2 Nordeste 6 Nordeste 0 -- -- 99
2021-02-15 07:00:00 1.3 0 Calma 4 Nordeste 0 -- -- 98
2021-02-15 06:00:00 1.8 0 Calma 4 Nordeste 0 -- -- 98
2021-02-15 05:00:00 2.2 0 Calma 5 Nordeste 0 -- -- 97
2021-02-15 04:00:00 2.6 0 Calma 6 Nordeste 0 -- -- 95
2021-02-15 03:00:00 3.5 3 Nordeste 8 Nordeste 0 -- -- 94
2021-02-15 02:00:00 3.8 4 Nordeste 7 Nordeste 0 -- -- 95
2021-02-15 01:00:00 3.7 0 Calma 10 Sudeste 0 -- -- 95
2021-02-15 00:00:00 4.4 2 Este 6 Nordeste 0 -- -- 93
2021-02-14 23:00:00 5.1 2 Nordeste 9 Nordeste 0 -- -- 91
2021-02-14 22:00:00 5.8 4 Nordeste 9 Nordeste 0 -- -- 90
2021-02-14 21:00:00 6.3 0 Calma 4 Sudeste 0 -- -- 91
2021-02-14 20:00:00 7.3 0 Calma 4 Sur 0 -- -- 89
2021-02-14 19:00:00 8.6 2 Sur 6 Sudeste 0 -- -- 85
2021-02-14 18:00:00 10.7 0 Calma 12 Sudeste 0 -- -- 76
2021-02-14 17:00:00 12.7 4 Sudoeste 25 Sudeste 0 -- -- 65
2021-02-14 16:00:00 13.8 8 Sur 21 Sudeste 0 -- -- 59
2021-02-14 15:00:00 13.7 10 Sudeste 22 Sudeste 0 -- -- 57
2021-02-14 14:00:00 12.6 7 Sudeste 18 Sur 0 -- -- 65
2021-02-14 13:00:00 11.9 12 Sudoeste 22 Sudoeste 0 -- -- 62
2021-02-14 12:00:00 11 12 Sudeste 21 Sudeste 0 -- -- 67
2021-02-14 11:00:00 6.7 0 Calma 6 Nordeste 0 -- -- 78
2021-02-14 10:00:00 3.6 6 Nordeste 12 Nordeste 0 -- -- 86
2021-02-14 09:00:00 1.7 5 Nordeste 10 Norte 0 -- -- 94
2021-02-14 08:00:00 1.4 4 Nordeste 10 Norte 0 -- -- 94
2021-02-14 07:00:00 1.6 5 Nordeste 10 Nordeste 0 -- -- 94
2021-02-14 06:00:00 1.7 4 Nordeste 9 Nordeste 0 -- -- 94
2021-02-14 05:00:00 2.1 4 Norte 9 Norte 0 -- -- 95
2021-02-14 04:00:00 2.6 3 Norte 11 Nordeste 0 -- -- 94
2021-02-14 03:00:00 2.9 5 Nordeste 13 Nordeste 0 -- -- 95
2021-02-14 02:00:00 3.3 5 Nordeste 10 Sur 0 -- -- 95
2021-02-14 01:00:00 3.8 3 Sudeste 9 Sur 0 -- -- 90
2021-02-14 00:00:00 4.1 0 Calma 4 Norte 0 -- -- 92
2021-02-13 23:00:00 5.2 2 Sur 15 Nordeste 0 -- -- 87
2021-02-13 22:00:00 5.7 3 Nordeste 12 Nordeste 0 -- -- 87
2021-02-13 21:00:00 6.6 2 Norte 8 Nordeste 0 -- -- 82
2021-02-13 20:00:00 7.9 0 Calma 9 Nordeste 0 -- -- 77
2021-02-13 19:00:00 9.2 3 Norte 6 Norte 0 -- -- 69
2021-02-13 18:00:00 11.3 2 Norte 19 Nordeste 0 -- -- 56
2021-02-13 17:00:00 12.8 8 Nordeste 24 Este 0 -- -- 48
2021-02-13 16:00:00 13.3 4 Nordeste 22 Nordeste 0 -- -- 45
2021-02-13 15:00:00 12.6 4 Sudoeste 13 Sudeste 0 -- -- 52
2021-02-13 14:00:00 10.4 5 Sur 10 Sur 0 -- -- 72
2021-02-13 13:00:00 7.8 3 Sur 11 Sur 0 -- -- 80
2021-02-13 08:00:00 -- -- -- -- -- -- -- -- --
2021-02-13 07:00:00 -- -- -- -- -- -- -- -- --
2021-02-13 06:00:00 -- -- -- -- -- -- -- -- --
2021-02-13 05:00:00 -- -- -- -- -- -- -- -- --
2021-02-13 04:00:00 6.4 0 Calma 14 Nordeste 0 -- -- 86
2021-02-13 03:00:00 8.5 6 Nordeste 16 Este 0 -- -- 70
2021-02-13 02:00:00 7.8 2 Este 13 Este 0 -- -- 79
2021-02-13 01:00:00 8.9 12 Nordeste 35 Nordeste 0 -- -- 69
2021-02-13 00:00:00 8.8 11 Nordeste 22 Nordeste 0 -- -- 70
2021-02-12 23:00:00 7.4 2 Noroeste 5 Nordeste 0 -- -- 89
2021-02-12 22:00:00 7.7 3 Sur 12 Sudeste 0 -- -- 86
2021-02-12 21:00:00 9.3 3 Sudoeste 19 Norte 0 -- -- 77
2021-02-12 20:00:00 9.9 6 Nordeste 13 Nordeste 0 -- -- 67
2021-02-12 19:00:00 9.6 2 Sudoeste 14 Norte 0 -- -- 72
2021-02-12 18:00:00 10.2 2 Norte 19 Sur 0 -- -- 66
2021-02-12 17:00:00 10.5 8 Nordeste 22 Nordeste 0 -- -- 64
2021-02-12 16:00:00 10.5 3 Norte 31 Nordeste 0 -- -- 66
2021-02-12 15:00:00 10.5 14 Nordeste 33 Norte 0 -- -- 67
2021-02-12 14:00:00 9.9 7 Sudeste 29 Nordeste 0 -- -- 69
2021-02-12 13:00:00 9.9 14 Nordeste 35 Norte 0 -- -- 69
2021-02-12 12:00:00 9 10 Este 27 Nordeste 0 -- -- 73
2021-02-12 11:00:00 8.5 4 Nordeste 24 Nordeste 0 -- -- 71
2021-02-12 10:00:00 8.4 5 Nordeste 29 Nordeste 0 -- -- 72
2021-02-12 09:00:00 8.2 10 Nordeste 25 Norte 0.2 -- -- 78
2021-02-12 08:00:00 7.3 0 Calma 14 Este 0.2 -- -- 96
2021-02-12 07:00:00 8 2 Oeste 14 Sudeste 1.2 -- -- 97
2021-02-12 06:00:00 8.7 10 Sur 15 Sur 2.2 -- -- 98
2021-02-12 05:00:00 9.1 4 Sur 19 Sudeste 0.6 -- -- 96
2021-02-12 04:00:00 9.2 6 Sudeste 21 Sudeste 0 -- -- 94
2021-02-12 03:00:00 9.2 10 Sudeste 22 Sudeste 0 -- -- 94
2021-02-12 02:00:00 9.7 13 Sudeste 26 Sudeste 0 -- -- 96
2021-02-12 01:00:00 9.7 9 Sudeste 18 Sudeste 0 -- -- 97
2021-02-12 00:00:00 9.6 7 Sudeste 14 Sudeste 0.2 -- -- 99
2021-02-11 23:00:00 9.2 0 Calma 6 Sudeste 0 -- -- 99
2021-02-11 22:00:00 8.9 0 Calma 3 Este 0 -- -- 96
2021-02-11 21:00:00 9.1 0 Calma 5 Sudeste 0 -- -- 95
2021-02-11 20:00:00 9.3 0 Calma 6 Este 0 -- -- 93
2021-02-11 19:00:00 9.7 4 Sudeste 10 Sur 0 -- -- 92
2021-02-11 18:00:00 9.9 3 Sur 14 Sudeste 0 -- -- 91
2021-02-11 17:00:00 10.1 8 Sur 21 Sudeste 0 -- -- 90
2021-02-11 16:00:00 10.4 10 Sudeste 24 Sudeste 0 -- -- 86
2021-02-11 15:00:00 10.6 14 Sudeste 30 Sudeste 0 -- -- 83
2021-02-11 14:00:00 10.6 11 Sudeste 26 Sudeste 0 -- -- 83
2021-02-11 13:00:00 9.3 8 Sur 19 Sudeste 0 -- -- 87
2021-02-11 12:00:00 9.4 8 Sur 16 Sudeste 0 -- -- 83
2021-02-11 11:00:00 7 3 Sur 13 Sudeste 0 -- -- 93
2021-02-11 10:00:00 5.7 2 Sudoeste 5 Sudoeste 0 -- -- 91
2021-02-11 09:00:00 5 0 Calma 8 Nordeste 0 -- -- 90
2021-02-11 08:00:00 4.5 0 Calma 3 Sur 0 -- -- 91
2021-02-11 07:00:00 4.8 0 Calma 5 Sur 0 -- -- 88
2021-02-11 06:00:00 4.3 0 Calma 5 Sur 0 -- -- 89
2021-02-11 05:00:00 3.9 3 Sur 6 Sur 0 -- -- 89
2021-02-11 04:00:00 3.9 0 Calma 6 Sur 0 -- -- 89
2021-02-11 03:00:00 3.5 2 Sur 6 Sudeste 0 -- -- 91
2021-02-11 02:00:00 3 0 Calma 5 Nordeste 0 -- -- 91
2021-02-11 01:00:00 2.4 2 Sudoeste 6 Sur 0 -- -- 92
2021-02-11 00:00:00 2.2 0 Calma 9 Sur 0 -- -- 90
2021-02-10 23:00:00 3.2 0 Calma 4 Sur 0 -- -- 86
2021-02-10 22:00:00 4.5 2 Oeste 10 Noroeste 0 -- -- 83
2021-02-10 21:00:00 5.4 3 Noroeste 17 Nordeste 0 -- -- 81
2021-02-10 20:00:00 6 6 Nordeste 13 Nordeste 0 -- -- 77
2021-02-10 19:00:00 6.4 0 Calma 6 Nordeste 0 -- -- 77
2021-02-10 18:00:00 8 0 Calma 8 Nordeste 0 -- -- 69
2021-02-10 17:00:00 10.7 4 Norte 19 Sudoeste 0 -- -- 60
2021-02-10 16:00:00 11 5 Sur 24 Sur 0 -- -- 51
2021-02-10 15:00:00 10.2 13 Sur 28 Nordeste 0 -- -- 52
2021-02-10 14:00:00 9.6 8 Sur 34 Sur 0 -- -- 52
2021-02-10 13:00:00 8.2 9 Sudeste 36 Nordeste 0 -- -- 57
2021-02-10 12:00:00 7.2 14 Nordeste 37 Este 0 -- -- 61
2021-02-10 11:00:00 6.5 15 Este 42 Norte 0 -- -- 66
2021-02-10 10:00:00 5.9 10 Nordeste 33 Nordeste 0 -- -- 74
2021-02-10 09:00:00 5.2 12 Nordeste 29 Norte 0 -- -- 80
2021-02-10 08:00:00 5.2 9 Nordeste 34 Nordeste 0 -- -- 84
2021-02-10 07:00:00 5 8 Nordeste 34 Norte 0 -- -- 84
2021-02-10 06:00:00 3.6 4 Este 36 Nordeste 0.6 -- -- 88
2021-02-10 05:00:00 3.3 10 Nordeste 28 Nordeste 2 -- -- 95
2021-02-10 04:00:00 2.9 10 Nordeste 19 Nordeste 1.4 -- -- 94
2021-02-10 03:00:00 4.5 0 Calma 11 Sudeste 3.4 -- -- 97
2021-02-10 02:00:00 4.9 10 Sudeste 25 Sudeste 0.8 -- -- 96
2021-02-10 01:00:00 4.8 4 Sur 12 Oeste 0 -- -- 96
2021-02-10 00:00:00 4.8 7 Sur 14 Sudeste 0 -- -- 93
2021-02-09 23:00:00 5.4 5 Sur 24 Sur 0 -- -- 85
2021-02-09 22:00:00 4.5 4 Sur 9 Sur 0.6 -- -- 91
2021-02-09 21:00:00 5.2 3 Este 29 Nordeste 1.2 -- -- 88
2021-02-09 20:00:00 4.7 0 Calma 10 Sudeste 2 -- -- 97
2021-02-09 19:00:00 4.8 4 Sudoeste 23 Sudeste 0 -- -- 93
2021-02-09 18:00:00 6.1 6 Sur 26 Sudeste 0 -- -- 80
2021-02-09 17:00:00 6.6 10 Sur 24 Sudeste 0 -- -- 78
2021-02-09 16:00:00 5.5 6 Nordeste 31 Nordeste 0 -- -- 81
2021-02-09 15:00:00 6.4 9 Sudeste 39 Sur 2.8 -- -- 87
2021-02-09 14:00:00 6.6 12 Sudeste 39 Sudeste 1.8 -- -- 96
2021-02-09 13:00:00 6.3 14 Sudeste 35 Sur 2.4 -- -- 97
2021-02-09 12:00:00 5.9 16 Sudeste 35 Sudeste 3.8 -- -- 98
2021-02-09 11:00:00 5.5 16 Sudeste 35 Sudeste 2.6 -- -- 99
2021-02-09 10:00:00 5.1 14 Sudeste 27 Sudeste 0.8 -- -- 99
2021-02-09 09:00:00 4.6 11 Sudeste 22 Sudeste 0.4 -- -- 99
2021-02-09 08:00:00 4 5 Sudeste 12 Sudeste 1.4 -- -- 98
2021-02-09 07:00:00 3.8 5 Sudeste 21 Sudeste 1.8 -- -- 97
2021-02-09 06:00:00 3.7 13 Sudeste 29 Sudeste 1.6 -- -- 96
2021-02-09 05:00:00 3.7 10 Sudeste 22 Sudeste 1.6 -- -- 95
2021-02-09 04:00:00 4.3 6 Sudeste 15 Sudeste 0.8 -- -- 97
2021-02-09 03:00:00 4.7 7 Sur 14 Sudeste 0 -- -- 94
2021-02-09 02:00:00 5 8 Sur 17 Sudeste 0 -- -- 92
2021-02-09 01:00:00 5.9 4 Sur 22 Sur 0 -- -- 86
2021-02-09 00:00:00 6 5 Sudeste 18 Sur 0 -- -- 87
2021-02-08 23:00:00 5.5 3 Sudeste 25 Sur 0 -- -- 90
2021-02-08 22:00:00 6.5 12 Sur 28 Sudeste 0 -- -- 79
2021-02-08 21:00:00 6.7 8 Nordeste 31 Nordeste 0 -- -- 80
2021-02-08 20:00:00 5.1 4 Nordeste 22 Nordeste 0.2 -- -- 94
2021-02-08 19:00:00 4.8 3 Nordeste 20 Sur 0.2 -- -- 92
2021-02-08 18:00:00 5.2 3 Sur 14 Sur 0.6 -- -- 93
2021-02-08 17:00:00 6.2 3 Sudeste 21 Sur 0.4 -- -- 84
2021-02-08 16:00:00 7.7 6 Nordeste 18 Nordeste 0 -- -- 68
2021-02-08 15:00:00 7.1 5 Sudeste 28 Sur 0 -- -- 78
2021-02-08 14:00:00 6.9 5 Sur 23 Sur 0 -- -- 79
2021-02-08 13:00:00 6.2 7 Sur 17 Sudeste 0 -- -- 88
2021-02-08 12:00:00 5.7 5 Sur 13 Sur 0.2 -- -- 92
2021-02-08 11:00:00 5.5 5 Sur 17 Nordeste 0 -- -- 88
2021-02-08 10:00:00 4.3 0 Calma 6 Sudeste 0.2 -- -- 100
2021-02-08 09:00:00 2.9 2 Sudoeste 6 Nordeste 0.2 -- -- 99
2021-02-08 08:00:00 2.9 4 Norte 17 Nordeste 0.2 -- -- 96
2021-02-08 07:00:00 3 7 Nordeste 14 Nordeste 1.2 -- -- 96
2021-02-08 06:00:00 3.5 0 Calma 14 Sudeste 3.8 -- -- 93
2021-02-08 05:00:00 4.2 9 Sudeste 23 Sudeste 1.6 -- -- 95
2021-02-08 04:00:00 4.4 8 Sudeste 20 Sudeste 1.4 -- -- 98
2021-02-08 03:00:00 4.1 4 Sudeste 19 Sudeste 2.4 -- -- 98
2021-02-08 02:00:00 3.7 12 Sudeste 23 Sudeste 0.8 -- -- 99
2021-02-08 01:00:00 3.8 12 Sudeste 22 Sudeste 0.4 -- -- 98
2021-02-08 00:00:00 4.4 8 Sudeste 20 Sudeste 0.2 -- -- 97
2021-02-07 23:00:00 4.8 6 Sudeste 12 Sudeste 0 -- -- 94
2021-02-07 22:00:00 4.8 5 Sur 12 Sudeste 0 -- -- 92
2021-02-07 21:00:00 4.9 2 Nordeste 10 Nordeste 0 -- -- 89
2021-02-07 20:00:00 5.5 7 Nordeste 12 Nordeste 0 -- -- 80
2021-02-07 19:00:00 6.3 0 Calma 4 Sur 0 -- -- 74
2021-02-07 18:00:00 7.1 2 Sudeste 15 Sur 0 -- -- 65
2021-02-07 17:00:00 7.8 8 Sur 19 Sur 0 -- -- 54
2021-02-07 16:00:00 7.9 3 Sudeste 19 Norte 0 -- -- 55
2021-02-07 15:00:00 8 10 Nordeste 24 Nordeste 0 -- -- 52
2021-02-07 14:00:00 7.9 10 Nordeste 19 Este 0 -- -- 51
2021-02-07 13:00:00 8.5 4 Sudeste 14 Sudeste 0 -- -- 52
2021-02-07 12:00:00 6.5 4 Nordeste 26 Nordeste 0 -- -- 57
2021-02-07 11:00:00 5.8 12 Nordeste 32 Nordeste 0 -- -- 58
2021-02-07 10:00:00 1.4 0 Calma 4 Sudoeste 0 -- -- 96
2021-02-07 09:00:00 -0.3 0 Calma 15 Nordeste 0 -- -- 95
2021-02-07 08:00:00 0.8 4 Norte 14 Noroeste 0 -- -- 87
2021-02-07 07:00:00 1.4 0 Calma 9 Nordeste 0 -- -- 85
2021-02-07 06:00:00 1.8 3 Norte 6 Norte 0 -- -- 86
2021-02-07 05:00:00 3 0 Calma 18 Nordeste 0 -- -- 82
2021-02-07 04:00:00 4.2 7 Nordeste 26 Nordeste 0 -- -- 71
2021-02-07 03:00:00 4.6 9 Nordeste 23 Nordeste 0 -- -- 77
2021-02-07 02:00:00 4.9 4 Nordeste 9 Nordeste 0 -- -- 80
2021-02-07 01:00:00 4.6 3 Sudoeste 4 Sur 0 -- -- 96
2021-02-07 00:00:00 5.1 0 Calma 8 Oeste 0.2 -- -- 93
2021-02-06 23:00:00 5.7 0 Calma 8 Norte 0 -- -- 87
2021-02-06 22:00:00 5.8 2 Norte 10 Oeste 0 -- -- 90
2021-02-06 21:00:00 6.5 2 Oeste 4 Sudoeste 0 -- -- 95
2021-02-06 20:00:00 7 0 Calma 3 Oeste 0 -- -- 89
2021-02-06 19:00:00 7.3 0 Calma 4 Nordeste 0 -- -- 93
2021-02-06 18:00:00 7.5 2 Nordeste 7 Nordeste 0 -- -- 89
2021-02-06 17:00:00 7.2 4 Nordeste 15 Nordeste 0.2 -- -- 85
2021-02-06 16:00:00 6.9 11 Nordeste 26 Nordeste 0 -- -- 87
2021-02-06 15:00:00 9.2 6 Sudeste 16 Sur 0 -- -- 83
2021-02-06 14:00:00 8.8 9 Sudeste 19 Sudeste 0 -- -- 83
2021-02-06 13:00:00 7.5 5 Sudeste 21 Sudeste 0 -- -- 94
2021-02-06 12:00:00 7.8 11 Sudeste 22 Sudeste 0 -- -- 92
2021-02-06 11:00:00 7.1 7 Sudeste 15 Sudeste 0 -- -- 94
2021-02-06 10:00:00 6.6 7 Sudeste 19 Sur 0 -- -- 97
2021-02-06 09:00:00 6.6 4 Sudeste 15 Sudeste 1 -- -- 97
2021-02-06 08:00:00 6.7 6 Sudeste 15 Sur 0 -- -- 97
2021-02-06 07:00:00 6.9 9 Sudeste 20 Sudeste 0.4 -- -- 97
2021-02-06 06:00:00 7.2 7 Sudeste 14 Sur 0 -- -- 98
2021-02-06 05:00:00 7.3 5 Sudeste 17 Sudeste 0.2 -- -- 98
2021-02-06 04:00:00 7.2 6 Sur 17 Sudeste 0.8 -- -- 98
2021-02-06 03:00:00 7.1 4 Sur 10 Sudeste 1.2 -- -- 98
2021-02-06 02:00:00 7.1 0 Calma 4 Sur 0 -- -- 98
2021-02-06 01:00:00 7.1 0 Calma 4 Norte 0 -- -- 97
2021-02-06 00:00:00 7.5 4 Norte 24 Sudeste 4.8 -- -- 95
2021-02-05 23:00:00 7.9 2 Oeste 22 Sudeste 1.2 -- -- 96
2021-02-05 22:00:00 7.4 0 Calma 3 Sudoeste 0 -- -- 93
2021-02-05 21:00:00 7.9 0 Calma 8 Nordeste 0 -- -- 89
2021-02-05 20:00:00 8.4 0 Calma 6 Nordeste 0 -- -- 86
2021-02-05 19:00:00 9.9 0 Calma 4 Nordeste 0 -- -- 81
2021-02-05 18:00:00 11.7 0 Calma 4 Sudoeste 0 -- -- 74
2021-02-05 17:00:00 13.5 3 Oeste 13 Sur 0 -- -- 64
2021-02-05 16:00:00 15.2 6 Sudoeste 13 Sur 0 -- -- 52
2021-02-05 15:00:00 15 3 Oeste 15 Oeste 0 -- -- 58
2021-02-05 14:00:00 14.5 8 Sudoeste 18 Sudeste 0 -- -- 55
2021-02-05 13:00:00 13.8 8 Sudoeste 19 Sudeste 0 -- -- 54
2021-02-05 12:00:00 12 4 Oeste 13 Sur 0 -- -- 68
2021-02-05 11:00:00 8.2 4 Nordeste 9 Nordeste 0 -- -- 89
2021-02-05 10:00:00 5.9 4 Nordeste 9 Nordeste 0 -- -- 93
2021-02-05 09:00:00 5.2 3 Norte 15 Nordeste 0 -- -- 94
2021-02-05 08:00:00 4.9 5 Nordeste 14 Nordeste 0 -- -- 94
2021-02-05 07:00:00 4.6 2 Norte 14 Este 0 -- -- 96
2021-02-05 06:00:00 4.5 4 Nordeste 10 Nordeste 0 -- -- 97
2021-02-05 05:00:00 5 3 Norte 7 Norte 0 -- -- 97
2021-02-05 04:00:00 5.5 4 Nordeste 10 Nordeste 0 -- -- 97
2021-02-05 03:00:00 5.3 2 Este 12 Norte 0 -- -- 97
2021-02-05 02:00:00 5.4 2 Nordeste 14 Nordeste 0 -- -- 97
2021-02-05 01:00:00 5.3 0 Calma 16 Nordeste 0 -- -- 98
2021-02-05 00:00:00 4.9 6 Nordeste 10 Nordeste 0 -- -- 98
2021-02-04 23:00:00 5.2 2 Nordeste 7 Nordeste 0 -- -- 98
2021-02-04 22:00:00 5.7 3 Nordeste 6 Nordeste 0 -- -- 97
2021-02-04 21:00:00 6.3 0 Calma 3 Este 0 -- -- 94
2021-02-04 20:00:00 7.6 0 Calma 4 Este 0 -- -- 91
2021-02-04 19:00:00 8.5 0 Calma 10 Sudeste 0 -- -- 87
2021-02-04 18:00:00 9.9 7 Sudeste 22 Sudeste 0 -- -- 77
2021-02-04 17:00:00 10.5 12 Sudeste 27 Sudeste 0 -- -- 73
2021-02-04 16:00:00 11.3 12 Sudeste 22 Sudeste 0 -- -- 79
2021-02-04 15:00:00 11.7 9 Sur 18 Sudeste 0 -- -- 76
2021-02-04 14:00:00 11 5 Sudeste 18 Sudeste 0 -- -- 82
2021-02-04 13:00:00 10.6 8 Sudeste 15 Sur 0 -- -- 88
2021-02-04 12:00:00 9.3 4 Sudeste 14 Sudeste 0 -- -- 99
2021-02-04 11:00:00 8.5 7 Sur 12 Sudeste 0.2 -- -- 100
2021-02-04 10:00:00 8.2 5 Sudeste 9 Sudeste 0.2 -- -- 100
2021-02-04 09:00:00 8 3 Sudeste 9 Sudeste 0.2 -- -- 99
2021-02-04 08:00:00 8.1 5 Sudeste 11 Sudeste 0 -- -- 99
2021-02-04 07:00:00 8.2 5 Sudeste 12 Sudeste 0 -- -- 99
2021-02-04 06:00:00 8.4 6 Sudeste 15 Sudeste 0 -- -- 100
2021-02-04 05:00:00 8.6 6 Sudeste 15 Sudeste 0 -- -- 99
2021-02-04 04:00:00 8.6 6 Sudeste 13 Sudeste 0 -- -- 99
2021-02-04 03:00:00 8.7 2 Sudeste 7 Sudeste 0.2 -- -- 99
2021-02-04 02:00:00 8.8 2 Sudeste 15 Sudeste 0 -- -- 99
2021-02-04 01:00:00 8.8 0 Calma 10 Sudeste 0.4 -- -- 99
2021-02-04 00:00:00 8.4 0 Calma 5 Sudeste 0.4 -- -- 100
2021-02-03 23:00:00 8.1 0 Calma 3 Este 1 -- -- 99
2021-02-03 22:00:00 8.3 0 Calma 5 Sur 0.8 -- -- 98
2021-02-03 21:00:00 8.6 3 Sudeste 11 Sudeste 0 -- -- 97
2021-02-03 20:00:00 8.9 5 Sudeste 15 Sudeste 0 -- -- 94
2021-02-03 19:00:00 8.9 11 Sudeste 19 Sudeste 0 -- -- 92
2021-02-03 18:00:00 9.1 11 Sudeste 21 Sudeste 0 -- -- 89
2021-02-03 17:00:00 9.3 10 Sudeste 22 Sudeste 0 -- -- 89
2021-02-03 16:00:00 9.2 10 Sudeste 19 Sudeste 0 -- -- 89
2021-02-03 15:00:00 8.6 6 Sudeste 19 Sudeste 0 -- -- 92
2021-02-03 14:00:00 8 4 Noroeste 14 Sudeste 0 -- -- 95
2021-02-03 13:00:00 7.5 4 Sur 19 Sudeste 0 -- -- 98
2021-02-03 12:00:00 7.2 6 Sur 15 Sudeste 0 -- -- 97
2021-02-03 11:00:00 7 7 Sur 21 Sudeste 0 -- -- 96
2021-02-03 10:00:00 7 13 Sudeste 23 Sudeste 0 -- -- 95
2021-02-03 09:00:00 6.9 9 Sur 21 Sudeste 0 -- -- 94
2021-02-03 08:00:00 6.8 11 Sudeste 24 Sudeste 0 -- -- 93
2021-02-03 07:00:00 6.6 10 Sudeste 20 Sudeste 0 -- -- 94
2021-02-03 06:00:00 6.6 8 Sudeste 16 Sudeste 0 -- -- 93
2021-02-03 05:00:00 6.8 5 Sudeste 15 Sudeste 0 -- -- 93
2021-02-03 04:00:00 6.9 6 Sudeste 16 Sur 0 -- -- 92
2021-02-03 03:00:00 7.1 9 Sudeste 20 Sudeste 0 -- -- 91
2021-02-03 02:00:00 7.5 4 Sudeste 22 Sudeste 0 -- -- 88
2021-02-03 01:00:00 7.9 5 Sudeste 21 Sudeste 0 -- -- 86
2021-02-03 00:00:00 8.6 11 Sudeste 27 Sudeste 0 -- -- 89
2021-02-02 23:00:00 8.9 8 Sudeste 19 Sudeste 0 -- -- 89
2021-02-02 22:00:00 9.1 10 Sudeste 24 Sudeste 0 -- -- 90
2021-02-02 21:00:00 9.1 11 Sudeste 23 Sudeste 0 -- -- 92
2021-02-02 20:00:00 8.6 0 Calma 5 Nordeste 0 -- -- 97
2021-02-02 19:00:00 8.9 0 Calma 6 Sudeste 0 -- -- 94
2021-02-02 18:00:00 9.1 4 Sur 12 Sudeste 0 -- -- 91
2021-02-02 17:00:00 9.5 5 Sudeste 15 Sudeste 0 -- -- 87
2021-02-02 16:00:00 9.6 7 Sur 14 Sur 0 -- -- 88
2021-02-02 15:00:00 9.2 5 Sudeste 16 Sudeste 0 -- -- 92
2021-02-02 14:00:00 8.8 8 Sudeste 19 Sudeste 0 -- -- 91
2021-02-02 13:00:00 8.1 10 Sudeste 21 Sudeste 0 -- -- 93
2021-02-02 12:00:00 7.3 7 Sudeste 15 Sudeste 0 -- -- 96
2021-02-02 11:00:00 6.6 5 Sudeste 15 Sudeste 0 -- -- 96
2021-02-02 10:00:00 6.2 6 Sudeste 18 Sur 0 -- -- 99
2021-02-02 09:00:00 5.8 8 Sudeste 14 Sudeste 0 -- -- 100
2021-02-02 08:00:00 5.6 6 Sudeste 11 Sudeste 0 -- -- 100
2021-02-02 07:00:00 5.8 6 Sudeste 14 Sudeste 0 -- -- 100
2021-02-02 06:00:00 6.1 6 Sudeste 15 Sudeste 0 -- -- 99
2021-02-02 05:00:00 6.5 2 Sur 7 Sudeste 0 -- -- 99
2021-02-02 04:00:00 6.7 4 Sudeste 8 Sudeste 0 -- -- 97
2021-02-02 03:00:00 6.7 0 Calma 11 Sur 0 -- -- 95
2021-02-02 02:00:00 6.3 0 Calma 5 Sudoeste 0 -- -- 92
2021-02-02 01:00:00 6.3 0 Calma 4 Sur 0 -- -- 90
2021-02-02 00:00:00 6.6 0 Calma 5 Noroeste 0 -- -- 88
2021-02-01 23:00:00 6.8 4 Sudoeste 15 Nordeste 0 -- -- 86
2021-02-01 22:00:00 8.4 3 Nordeste 13 Nordeste 0 -- -- 80
2021-02-01 21:00:00 9.8 4 Noroeste 32 Nordeste 0 -- -- 74
2021-02-01 20:00:00 9 6 Nordeste 19 Este 0 -- -- 74
2021-02-01 19:00:00 9.1 0 Calma 15 Este 0 -- -- 76
2021-02-01 18:00:00 11 3 Oeste 32 Sudeste 0 -- -- 66
2021-02-01 17:00:00 11.4 15 Sudeste 39 Sur 0 -- -- 62
2021-02-01 16:00:00 12 9 Sudeste 35 Este 0 -- -- 63
2021-02-01 15:00:00 12.1 8 Este 40 Norte 0 -- -- 64
2021-02-01 14:00:00 12.2 10 Sudeste 50 Norte 0 -- -- 65
2021-02-01 13:00:00 11.9 16 Nordeste 48 Nordeste 0 -- -- 64
2021-02-01 12:00:00 12.4 9 Nordeste 26 Nordeste 0 -- -- 60
2021-02-01 11:00:00 10.9 14 Nordeste 36 Este 0 -- -- 66
2021-02-01 10:00:00 9.8 13 Nordeste 44 Nordeste 0 -- -- 67
2021-02-01 09:00:00 8.9 8 Nordeste 38 Nordeste 0 -- -- 70
2021-02-01 08:00:00 9.3 22 Nordeste 60 Nordeste 0 -- -- 66
2021-02-01 07:00:00 9.1 17 Nordeste 54 Nordeste 0 -- -- 67
2021-02-01 06:00:00 9.3 18 Nordeste 50 Nordeste 0 -- -- 65
2021-02-01 05:00:00 9.3 11 Nordeste 44 Nordeste 0 -- -- 66
2021-02-01 04:00:00 9.6 9 Este 36 Nordeste 0 -- -- 64
2021-02-01 03:00:00 10.2 12 Nordeste 36 Nordeste 0 -- -- 63
2021-02-01 02:00:00 10.7 9 Este 45 Sudeste 0 -- -- 60
2021-02-01 01:00:00 11.4 16 Sudeste 39 Nordeste 0 -- -- 58
2021-02-01 00:00:00 11.8 10 Este 50 Nordeste 0 -- -- 58
2021-01-31 23:00:00 12 10 Nordeste 47 Nordeste 0 -- -- 59
2021-01-31 22:00:00 12.3 13 Nordeste 51 Nordeste 0 -- -- 59
2021-01-31 21:00:00 12.5 14 Nordeste 53 Norte 0 -- -- 57
2021-01-31 20:00:00 13.1 16 Nordeste 44 Nordeste 0 -- -- 55
2021-01-31 19:00:00 13.4 10 Nordeste 35 Nordeste 0 -- -- 58
2021-01-31 18:00:00 13.5 13 Nordeste 45 Nordeste 0 -- -- 59
2021-01-31 17:00:00 13.2 14 Nordeste 64 Este 0 -- -- 63
2021-01-31 16:00:00 13.3 9 Este 26 Sur 0 -- -- 69
2021-01-31 15:00:00 13.1 8 Este 31 Nordeste 0 -- -- 68
2021-01-31 14:00:00 12.4 11 Nordeste 45 Nordeste 0 -- -- 71
2021-01-31 13:00:00 11.6 8 Este 26 Sudoeste 0 -- -- 72
2021-01-31 12:00:00 10.6 4 Este 19 Nordeste 0 -- -- 78
2021-01-31 11:00:00 8.2 0 Calma 15 Norte 0 -- -- 83
2021-01-31 10:00:00 7.4 8 Nordeste 46 Nordeste 0 -- -- 82
2021-01-31 09:00:00 7.4 16 Nordeste 53 Nordeste 0 -- -- 78
2021-01-31 08:00:00 7.4 22 Nordeste 49 Nordeste 0 -- -- 73
2021-01-31 07:00:00 7 18 Nordeste 49 Nordeste 0 -- -- 67
2021-01-31 06:00:00 7 10 Nordeste 62 Nordeste 0 -- -- 67
2021-01-31 05:00:00 6.7 14 Nordeste 46 Nordeste 0 -- -- 69
2021-01-31 04:00:00 6.6 15 Nordeste 42 Nordeste 0 -- -- 71
2021-01-31 03:00:00 6.6 8 Este 23 Sudoeste 0 -- -- 73
2021-01-31 02:00:00 6.5 6 Sudeste 49 Nordeste 0 -- -- 75
2021-01-31 01:00:00 6.7 21 Nordeste 56 Este 0 -- -- 71
2021-01-31 00:00:00 6.6 19 Nordeste 59 Nordeste 0 -- -- 71